ADDS METAR Data INFO
IDs: Format: Raw Decoded Include TAF

Data at: 2335 UTC 25 Feb 2018

KTKC 252315Z AUTO 25007KT 10SM CLR M02/M06 A2988 RMK AO2 T10221058
KTKC 252255Z AUTO 29004KT 10SM CLR M02/M06 A2989 RMK AO2 T10181056
KTKC 252235Z AUTO 24010KT 10SM CLR M01/M05 A2987 RMK AO2 T10151051
KTKC 252215Z AUTO 25010G17KT 10SM CLR M01/M05 A2986 RMK AO2 T10121052
KTKC 252155Z AUTO 25014G19KT 10SM CLR M02/M05 A2985 RMK AO2 T10161055
KTKC 252135Z AUTO 24016KT 10SM CLR M01/M05 A2985 RMK AO2 T10151055
KTKC 252115Z AUTO 25018G23KT 10SM CLR M02/M05 A2985 RMK AO2 T10161055
KTKC 252055Z AUTO 24016KT 10SM CLR M02/M05 A2984 RMK AO2 T10161055
KTKC 252035Z AUTO 24014G17KT 10SM CLR M01/M05 A2983 RMK AO2 T10151053
KTKC 252015Z AUTO 26010G19KT 10SM CLR M02/M05 A2983 RMK AO2 T10161051
KTKC 251955Z AUTO 25015G21KT 10SM CLR M01/M05 A2982 RMK AO2 T10141047
KTKC 251935Z AUTO 25013G18KT 10SM CLR M01/M04 A2981 RMK AO2 T10141043
KTKC 251915Z AUTO 25014G23KT 10SM CLR M02/M04 A2981 RMK AO2 T10171045
KTKC 251855Z AUTO 25015G21KT 10SM CLR M02/M04 A2979 RMK AO2 T10181045
KTKC 251835Z AUTO 25013G21KT 7SM CLR M02/M04 A2978 RMK AO2 T10201045
KTKC 251815Z AUTO 25016G22KT 10SM CLR M03/M05 A2978 RMK AO2 T10261050
KTKC 251755Z AUTO 25016G22KT 7SM CLR M03/M05 A2978 RMK AO2 T10301054 11030 21094
KTKC 251735Z AUTO 25015G21KT 7SM CLR M03/M06 A2978 RMK AO2 T10351059
KTKC 251715Z AUTO 25013G16KT 10SM CLR M04/M07 A2978 RMK AO2 T10431066
KTKC 251655Z AUTO 26010G17KT 10SM SCT012 M05/M07 A2977 RMK AO2 T10501075
KTKC 251635Z AUTO 26010G15KT 10SM BKN012 M06/M08 A2978 RMK AO2 T10581085
KTKC 251615Z AUTO 27008G14KT 240V300 10SM SCT012 M06/M09 A2978 RMK AO2 T10611090
KTKC 251555Z AUTO 26013G17KT 10SM CLR M07/M10 A2975 RMK AO2 T10691098
KTKC 251535Z AUTO 27009KT 10SM CLR M07/M10 A2974 RMK AO2 T10711102
KTKC 251515Z AUTO 28007G14KT 10SM CLR M08/M11 A2973 RMK AO2 T10761107
KTKC 251456Z AUTO 29007KT 250V310 10SM CLR M08/M11 A2972 RMK AO2 T10811112
KTKC 251435Z AUTO 29006KT 10SM CLR M08/M12 A2972 RMK AO2 T10851116
KTKC 251415Z AUTO 30008KT 10SM CLR M09/M12 A2971 RMK AO2 T10881118
KTKC 251355Z AUTO 26008G14KT 10SM CLR M09/M12 A2970 RMK AO2 T10901121
KTKC 251335Z AUTO 26010G17KT 10SM CLR M09/M12 A2969 RMK AO2 T10921121
KTKC 251315Z AUTO 25013G20KT 10SM CLR M09/M12 A2968 RMK AO2 T10911122
KTKC 251255Z AUTO 26012G20KT 10SM CLR M09/M12 A2968 RMK AO2 T10911121
KTKC 251235Z AUTO 26013G18KT 10SM CLR M09/M12 A2966 RMK AO2 T10901121
KTKC 251215Z AUTO 26011G19KT 10SM CLR M09/M12 A2965 RMK AO2 T10881120
KTKC 251155Z AUTO 27009KT 10SM CLR M09/M12 A2965 RMK AO2 T10931125 11076 21098
KTKC 251135Z AUTO 29007KT 10SM CLR M10/M13 A2966 RMK AO2 T10961127
KTKC 251115Z AUTO 25012G15KT 7SM CLR M09/M12 A2964 RMK AO2 T10941125
KTKC 251055Z AUTO 24012KT 10SM CLR M10/M13 A2963 RMK AO2 T10971126
KTKC 251035Z AUTO 25014G19KT 10SM CLR M09/M12 A2963 RMK AO2 T10931121
KTKC 251015Z AUTO 25017G23KT 7SM CLR M09/M12 A2963 RMK AO2 T10951120
KTKC 250955Z AUTO 25014G19KT 10SM CLR M09/M12 A2961 RMK AO2 T10911116
KTKC 250935Z AUTO 25009G14KT 10SM CLR M09/M11 A2960 RMK AO2 T10891110
KTKC 250915Z AUTO 25012G16KT 10SM CLR M09/M10 A2961 RMK AO2 T10871105
KTKC 250856Z AUTO 25014G19KT 5SM BR CLR M08/M10 A2961 RMK AO2 T10851102
KTKC 250835Z AUTO 25016G23KT 4SM BR SCT008 M08/M10 A2961 RMK AO2 T10841098
KTKC 250815Z AUTO 26013G22KT 5SM BR SCT008 M08/M10 A2960 RMK AO2 T10841097
KTKC 250755Z AUTO 26012G17KT 10SM SCT008 M08/M09 A2961 RMK AO2 T10801094
KTKC 250735Z AUTO 26012G17KT 10SM SCT008 M08/M10 A2961 RMK AO2 T10811096
KTKC 250715Z AUTO 27012G21KT 5SM BR SCT008 M08/M09 A2960 RMK AO2 T10761090
KTKC 250655Z AUTO 27013G23KT 5SM BR CLR M08/M09 A2959 RMK AO2 T10791092
KTKC 250635Z AUTO 26013G19KT 10SM SCT013 M08/M10 A2958 RMK AO2 T10801096
KTKC 250615Z AUTO 27013G19KT 7SM SCT013 M08/M09 A2958 RMK AO2 T10781095
KTKC 250555Z AUTO 27012G20KT 5SM BR SCT011 M08/M09 A2958 RMK AO2 T10801095 11058 21084 410581140
KTKC 250535Z AUTO 27013G21KT 5SM BR SCT024 M08/M09 A2958 RMK AO2 T10801095
KTKC 250515Z AUTO 26013G18KT 10SM CLR M08/M10 A2957 RMK AO2 T10801097
KTKC 250455Z AUTO 26011G16KT 10SM SCT030 M08/M10 A2956 RMK AO2 T10821100
KTKC 250435Z AUTO 27008G14KT 10SM SCT015 BKN028 BKN038 M08/M09 A2956 RMK AO2 T10761095
KTKC 250415Z AUTO 27011G19KT 7SM BKN015 BKN026 OVC031 M07/M09 A2958 RMK AO2 T10701087
KTKC 250355Z AUTO 28009G19KT 5SM -SN SCT013 BKN018 OVC030 M07/M08 A2958 RMK AO2 T10681082
KTKC 250335Z AUTO 27008G17KT 7SM -SN SCT013 SCT022 OVC030 M07/M08 A2958 RMK AO2 T10661082
KTKC 250315Z AUTO 26011G16KT 5SM -SN OVC011 M06/M07 A2958 RMK AO2 T10611075
KTKC 250255Z AUTO 26011G16KT 7SM OVC011 M06/M07 A2958 RMK AO2 T10581071
KTKC 250236Z AUTO 26008KT 7SM OVC011 M06/M07 A2958 RMK AO2 T10601071
KTKC 250215Z AUTO 25009KT 7SM OVC009 M06/M07 A2958 RMK AO2 T10631073
KTKC 250155Z AUTO 24009KT 7SM OVC009 M07/M08 A2958 RMK AO2 T10671076
KTKC 250135Z AUTO 25008KT 7SM BKN009 OVC014 M07/M08 A2959 RMK AO2 T10711080
KTKC 250115Z AUTO 25006KT 7SM BKN015 OVC047 M07/M08 A2960 RMK AO2 T10751081
KTKC 250055Z AUTO 25004KT 7SM SCT017 BKN047 OVC060 M08/M08 A2960 RMK AO2 T10761083
KTKC 250035Z AUTO 25004KT 3SM -SN SCT008 BKN021 OVC060 M08/M08 A2961 RMK AO2 T10761083
KTKC 250015Z AUTO 25004KT 2 1/2SM -SN SCT010 SCT016 OVC022 M08/M08 A2961 RMK AO2 T10781085
KTKC 242355Z AUTO 26004KT 3SM -SN SCT007 BKN022 OVC028 M08/M09 A2962 RMK AO2 T10801086 11075 21102
KTKC 242335Z AUTO 26003KT 1 1/4SM -SN BKN007 OVC019 M08/M09 A2963 RMK AO2 LTG DSNT SE T10791086
KTKC 242315Z AUTO 23005KT 1 1/4SM -SN BKN009 OVC018 M08/M08 A2963 RMK AO2 T10761083
KTKC 242255Z AUTO 22005KT 3/4SM -SN BKN004 OVC008 M08/M08 A2964 RMK AO2 T10771084
KTKC 242235Z AUTO 16003KT 1/4SM +SN OVC004 M08/M09 A2964 RMK AO2 T10801087
KTKC 242215Z AUTO 14005KT 1/2SM -SN OVC006 M08/M09 A2964 RMK AO2 T10831090
KTKC 242155Z AUTO 14007KT 3/4SM -SN OVC006 M08/M09 A2965 RMK AO2 T10851093
KTKC 242136Z AUTO 14006KT 3/4SM -SN OVC008 M09/M09 A2967 RMK AO2 T10871095
KTKC 242115Z AUTO 13006KT 3/4SM -SN OVC008 M09/M10 A2969 RMK AO2 T10881096
KTKC 242055Z AUTO 12005KT 1SM -SN OVC008 M09/M10 A2971 RMK AO2 T10901097
KTKC 242035Z AUTO 11007KT 1 1/4SM -SN OVC008 M09/M10 A2972 RMK AO2 T10921100
KTKC 242015Z AUTO 11009KT 1SM -SN BKN008 M09/M10 A2974 RMK AO2 T10951104
KTKC 241955Z AUTO 09008KT 1/2SM SN BKN003 M10/M11 A2974 RMK AO2 T11001108
KTKC 241935Z AUTO 08010KT 1/2SM SN OVC005 M10/M10 A2977 RMK AO2 T10961105
KTKC 241915Z AUTO 06006KT 3/4SM -SN OVC005 M10/M11 A2979 RMK AO2 T10991107
KTKC 241855Z AUTO 05005KT 1 1/4SM -SN SCT007 BKN012 OVC019 M10/M11 A2983 RMK AO2 T11001110
KTKC 241835Z AUTO 05006KT 4SM -SN SCT018 BKN038 OVC049 M10/M11 A2987 RMK AO2 T11001108
KTKC 241815Z AUTO 04005KT 7SM SCT006 BKN046 OVC070 M10/M11 A2989 RMK AO2 T11001109
KTKC 241755Z AUTO 01005KT 1SM -SN OVC004 M10/M11 A2990 RMK AO2 T11031113 11100 21125
KTKC 241735Z AUTO 02004KT 1 3/4SM -SN OVC004 M10/M11 A2992 RMK AO2 T11031112
KTKC 241715Z AUTO 01005KT 5SM BR BKN004 BKN017 OVC030 M10/M11 A2994 RMK AO2 T11031113
KTKC 241655Z AUTO 03003KT 7SM SCT018 BKN035 OVC047 M10/M11 A2995 RMK AO2 T11001110
KTKC 241635Z AUTO 01004KT 5SM BR SCT026 BKN036 OVC048 M10/M11 A2997 RMK AO2 T11051115
KTKC 241615Z AUTO 00000KT 7SM SCT037 BKN046 OVC065 M10/M11 A3000 RMK AO2 T11011111
KTKC 241555Z AUTO 03004KT 7SM OVC065 M10/M11 A3001 RMK AO2 T11021112
KTKC 241535Z AUTO 00000KT 10SM OVC060 M10/M11 A3003 RMK AO2 T11051115
KTKC 241515Z AUTO 03003KT 7SM SCT060 OVC080 M11/M12 A3002 RMK AO2 T11061116
KTKC 241456Z AUTO 00000KT 7SM SCT070 OVC080 M11/M12 A3005 RMK AO2 T11101120
KTKC 241435Z AUTO 00000KT 4SM BR OVC090 M11/M12 A3005 RMK AO2 T11131125
KTKC 241415Z AUTO 00000KT 5SM BR OVC090 M11/M13 A3004 RMK AO2 T11151126
KTKC 241355Z AUTO 00000KT 5SM -SN OVC090 M12/M13 A3003 RMK AO2 T11181129
KTKC 241335Z AUTO 00000KT 5SM BR BKN100 OVC120 M12/M13 A3003 RMK AO2 T11221134
KTKC 241315Z AUTO 00000KT 10SM OVC100 M12/M14 A3004 RMK AO2 T11251137
KTKC 241255Z AUTO 00000KT 10SM OVC100 M11/M13 A3007 RMK AO2 T11151126
KTKC 241235Z AUTO 00000KT 10SM OVC110 M11/M12 A3010 RMK AO2 T11151125
KTKC 241215Z AUTO 00000KT 7SM BKN110 M12/M13 A3010 RMK AO2 T11171128
KTKC 241155Z AUTO 00000KT 7SM CLR M12/M13 A3010 RMK AO2 70011 T11181130 11112 21140